This is the latest recevied weather packets stored in our database for station/object NR0Q. If no packets are shown the sender has not sent any weather packets the latest 10 day(s).
| Time | Temp. | Humidity | Pressure | Rain* | Wind** | Luminosity | Snow |
|---|---|---|---|---|---|---|---|
| 1777724101 | 11.11° C | 75% | 1021.7 hPa | 0 mm | - | - | - |
| 1777723201 | 11.11° C | 75% | 1021.7 hPa | 0 mm | - | - | - |
| 1777722301 | 10.56° C | 80% | 1020.7 hPa | 0 mm | - | - | - |
| 1777721401 | 10° C | 79% | 1020.7 hPa | 0 mm | - | - | - |
| 1777720501 | 10° C | 80% | 1020.7 hPa | 0 mm | - | - | - |
| 1777719601 | 10° C | 78% | 1020.7 hPa | 0 mm | - | - | - |
| 1777718701 | 10.56° C | 77% | 1020.7 hPa | 0 mm | - | - | - |
| 1777717801 | 10.56° C | 76% | 1020.7 hPa | 0 mm | - | - | - |
| 1777716902 | 11.11° C | 74% | 1020.7 hPa | 0 mm | - | - | - |
| 1777716001 | 11.11° C | 73% | 1020.7 hPa | 0 mm | - | - | - |
| 1777715101 | 11.11° C | 73% | 1020.7 hPa | 0 mm | - | - | - |
| 1777714201 | 11.67° C | 71% | 1020.7 hPa | 0 mm | - | - | - |
| 1777713301 | 12.78° C | 65% | 1020.7 hPa | 0 mm | - | - | - |
| 1777711501 | 13.33° C | 59% | 1020.7 hPa | 0 mm | - | - | - |
| 1777710601 | 13.33° C | 58% | 1020.7 hPa | 0 mm | - | - | - |
| 1777709701 | 13.33° C | 53% | 1020.7 hPa | 0 mm | - | - | - |
| 1777708801 | 9.44° C | 69% | 1020.7 hPa | 0 mm | - | - | - |
| 1777707001 | 9.44° C | 74% | 1020.7 hPa | 0 mm | - | - | - |
| 1777706101 | 10° C | 71% | 0 hPa | 0 mm | - | - | - |
| 1777705201 | 10° C | 66% | 0 hPa | 0 mm | - | - | - |
| 1777704301 | 9.44° C | 68% | 0 hPa | 0 mm | - | - | - |
| 1777703401 | 8.89° C | 74% | 1020.7 hPa | 0 mm | - | - | - |
| 1777701601 | 7.78° C | 85% | 0 hPa | 0 mm | - | - | - |
| 1777700701 | 7.78° C | 83% | 0 hPa | 0 mm | - | - | - |
| 1777699801 | 7.78° C | 84% | 0 hPa | 0 mm | - | - | - |
* Rain latest hour (hover to see other rain measurements)
** Current wind speed in m/s (hover to see current wind gust speed)